createdAt,value
2018-01-03T00:00:47.772Z,6.50
2018-01-03T00:03:16.108Z,6.40
2018-01-03T00:05:44.426Z,6.40
2018-01-03T00:08:13.455Z,6.50
2018-01-03T00:10:41.688Z,6.50
2018-01-03T00:13:09.936Z,6.50
2018-01-03T00:15:38.204Z,6.50
2018-01-03T00:18:06.438Z,6.50
2018-01-03T00:20:34.734Z,6.60
2018-01-03T00:23:03.004Z,6.60
2018-01-03T00:25:31.226Z,6.60
2018-01-03T00:28:00.239Z,6.60
2018-01-03T00:30:28.639Z,6.60
2018-01-03T00:32:56.927Z,6.60
2018-01-03T00:35:25.166Z,6.60
2018-01-03T00:37:54.199Z,6.70
2018-01-03T00:40:22.479Z,6.70
2018-01-03T00:42:50.714Z,6.70
2018-01-03T00:45:19.775Z,6.80
2018-01-03T00:47:48.054Z,6.80
2018-01-03T00:50:16.351Z,6.80
2018-01-03T00:52:44.610Z,6.80
2018-01-03T00:55:13.096Z,6.80
2018-01-03T00:57:41.374Z,6.90
2018-01-03T01:00:09.627Z,6.90
2018-01-03T01:02:37.945Z,6.90
2018-01-03T01:05:06.211Z,6.90
2018-01-03T01:07:34.458Z,7.00
2018-01-03T01:10:02.720Z,7.00
2018-01-03T01:12:31.009Z,7.00
2018-01-03T01:14:59.275Z,7.00
2018-01-03T01:17:28.303Z,7.10
2018-01-03T01:19:56.536Z,7.10
2018-01-03T01:22:24.781Z,7.10
2018-01-03T01:24:53.034Z,7.10
2018-01-03T01:27:21.277Z,7.10
2018-01-03T01:29:49.615Z,7.20
2018-01-03T01:32:18.814Z,7.30
2018-01-03T01:34:47.141Z,7.20
2018-01-03T01:37:15.386Z,7.30
2018-01-03T01:39:44.472Z,7.40
2018-01-03T01:42:13.468Z,7.40
2018-01-03T01:44:42.691Z,7.30
2018-01-03T01:47:10.923Z,7.30
2018-01-03T01:49:39.195Z,7.40
2018-01-03T01:52:07.548Z,7.30
2018-01-03T01:54:35.801Z,7.30
2018-01-03T01:57:04.089Z,7.40
2018-01-03T01:59:32.313Z,7.30
2018-01-03T02:02:00.599Z,7.40
2018-01-03T02:04:29.016Z,7.40
2018-01-03T02:06:57.311Z,7.40
2018-01-03T02:09:25.614Z,7.50
2018-01-03T02:11:53.810Z,7.60
2018-01-03T02:14:22.076Z,7.60
2018-01-03T02:16:51.142Z,7.60
2018-01-03T02:19:20.262Z,7.70
2018-01-03T02:21:48.517Z,7.60
2018-01-03T02:24:17.351Z,7.70
2018-01-03T02:29:37.621Z,7.70
2018-01-03T02:32:05.971Z,7.70
2018-01-03T02:34:34.993Z,7.70
2018-01-03T02:37:03.232Z,7.70
2018-01-03T02:39:32.264Z,7.70
2018-01-03T02:42:00.561Z,7.70
2018-01-03T02:44:28.828Z,7.80
2018-01-03T02:46:57.105Z,7.80
2018-01-03T02:49:25.450Z,7.80
2018-01-03T02:51:53.715Z,7.90
2018-01-03T02:54:22.725Z,7.90
2018-01-03T02:56:51.710Z,7.80
2018-01-03T02:59:19.961Z,7.80
2018-01-03T03:01:48.230Z,7.90
2018-01-03T03:04:16.490Z,7.90
2018-01-03T03:06:44.768Z,7.90
2018-01-03T03:09:13.014Z,7.90
2018-01-03T03:11:41.290Z,7.90
2018-01-03T03:14:09.553Z,8.00
2018-01-03T03:16:37.814Z,8.00
2018-01-03T03:19:06.891Z,8.00
2018-01-03T03:21:35.106Z,8.00
2018-01-03T03:24:03.374Z,8.00
2018-01-03T03:26:32.402Z,8.00
2018-01-03T03:29:00.684Z,8.00
2018-01-03T03:31:28.982Z,8.00
2018-01-03T03:33:57.261Z,8.10
2018-01-03T03:36:25.491Z,8.10
2018-01-03T03:38:55.254Z,8.20
2018-01-03T03:41:23.494Z,8.10
2018-01-03T03:43:51.745Z,8.20
2018-01-03T03:46:20.765Z,8.20
2018-01-03T03:48:48.969Z,8.20
2018-01-03T03:51:17.245Z,8.20
2018-01-03T03:53:45.529Z,8.20
2018-01-03T03:56:13.771Z,8.20
2018-01-03T03:58:42.006Z,8.30
2018-01-03T04:01:10.997Z,8.30
2018-01-03T04:03:40.125Z,8.40
2018-01-03T04:06:08.390Z,8.40
2018-01-03T04:08:37.381Z,8.50
2018-01-03T04:11:05.654Z,8.50
2018-01-03T04:13:34.745Z,8.60
2018-01-03T04:16:02.970Z,8.60
2018-01-03T04:18:31.216Z,8.60
2018-01-03T04:21:00.222Z,8.80
2018-01-03T04:23:28.491Z,8.80
2018-01-03T04:25:56.755Z,8.70
2018-01-03T04:28:24.982Z,8.80
2018-01-03T04:30:53.259Z,8.80
2018-01-03T04:33:21.527Z,8.90
2018-01-03T04:35:49.761Z,8.90
2018-01-03T04:38:18.794Z,9.00
2018-01-03T04:40:47.046Z,9.00
2018-01-03T04:43:15.302Z,9.00
2018-01-03T04:45:43.535Z,9.10
2018-01-03T04:48:11.806Z,9.10
2018-01-03T04:50:40.042Z,9.00
2018-01-03T04:53:09.055Z,9.10
2018-01-03T04:55:37.292Z,9.10
2018-01-03T04:58:05.550Z,9.10
2018-01-03T05:00:33.861Z,9.10
2018-01-03T05:03:02.881Z,9.10
2018-01-03T05:05:31.162Z,9.10
2018-01-03T05:08:00.134Z,8.70
2018-01-03T05:10:29.166Z,8.00
2018-01-03T05:12:57.419Z,7.90
2018-01-03T05:15:26.402Z,6.90
2018-01-03T05:17:55.432Z,6.80
2018-01-03T05:20:23.686Z,6.80
2018-01-03T05:22:52.797Z,6.90
2018-01-03T05:25:21.041Z,6.90
2018-01-03T05:27:50.069Z,7.20
2018-01-03T05:30:18.298Z,7.20
2018-01-03T05:32:47.341Z,7.30
2018-01-03T05:35:16.313Z,7.30
2018-01-03T05:37:45.330Z,7.30
2018-01-03T05:40:13.568Z,7.30
2018-01-03T05:42:43.146Z,7.40
2018-01-03T05:45:11.418Z,7.40
2018-01-03T05:47:39.706Z,7.40
2018-01-03T05:50:07.972Z,7.40
2018-01-03T05:52:36.239Z,7.40
2018-01-03T05:55:04.454Z,7.40
2018-01-03T05:57:32.739Z,7.40
2018-01-03T06:00:02.095Z,7.40
2018-01-03T06:02:30.367Z,7.40
2018-01-03T06:04:58.646Z,7.40
2018-01-03T06:07:26.946Z,7.40
2018-01-03T06:09:55.216Z,7.40
2018-01-03T06:12:23.457Z,7.40
2018-01-03T06:14:51.761Z,7.40
2018-01-03T06:17:19.988Z,7.30
2018-01-03T06:19:49.013Z,7.40
2018-01-03T06:22:17.261Z,7.40
2018-01-03T06:24:46.333Z,7.40
2018-01-03T06:27:14.719Z,7.40
2018-01-03T06:29:42.997Z,7.40
2018-01-03T06:32:11.255Z,7.50
2018-01-03T06:34:39.481Z,7.50
2018-01-03T06:37:07.738Z,7.60
2018-01-03T06:39:36.012Z,7.60
2018-01-03T06:42:04.241Z,7.70
2018-01-03T06:44:32.488Z,7.80
2018-01-03T06:47:00.726Z,7.80
2018-01-03T06:49:29.020Z,7.90
2018-01-03T06:51:57.245Z,8.00
2018-01-03T06:54:25.542Z,8.00
2018-01-03T06:56:53.777Z,8.00
2018-01-03T06:59:22.075Z,8.10
2018-01-03T07:01:50.329Z,8.10
2018-01-03T07:04:19.351Z,8.00
2018-01-03T07:06:47.603Z,8.00
2018-01-03T07:09:15.894Z,8.00
2018-01-03T07:11:44.193Z,8.10
2018-01-03T07:14:12.466Z,8.00
2018-01-03T07:16:40.758Z,8.00
2018-01-03T07:19:09.034Z,8.00
2018-01-03T07:21:37.313Z,8.00
2018-01-03T07:24:05.598Z,8.00
2018-01-03T07:26:33.852Z,7.90
2018-01-03T07:29:02.116Z,7.90
2018-01-03T07:31:30.350Z,7.90
2018-01-03T07:33:59.395Z,7.90
2018-01-03T07:36:27.649Z,7.90
2018-01-03T07:38:56.695Z,7.90
2018-01-03T07:41:24.955Z,7.90
2018-01-03T07:43:53.219Z,7.90
2018-01-03T07:46:22.006Z,7.90
2018-01-03T07:48:50.255Z,7.80
2018-01-03T07:51:18.576Z,7.70
2018-01-03T07:53:46.844Z,7.70
2018-01-03T07:56:15.133Z,7.70
2018-01-03T07:58:43.373Z,7.60
2018-01-03T08:01:12.412Z,7.30
2018-01-03T08:03:40.668Z,7.30
2018-01-03T08:06:08.928Z,7.00
2018-01-03T08:08:37.180Z,6.50
2018-01-03T08:11:05.505Z,6.00
2018-01-03T08:13:33.774Z,5.90
2018-01-03T08:16:02.066Z,5.80
2018-01-03T08:18:30.336Z,5.70
2018-01-03T08:20:58.589Z,5.60
2018-01-03T08:23:26.849Z,5.60
2018-01-03T08:25:55.129Z,5.50
2018-01-03T08:28:24.165Z,5.40
2018-01-03T08:30:52.452Z,5.40
2018-01-03T08:33:20.686Z,5.50
2018-01-03T08:35:49.722Z,5.50
2018-01-03T08:38:17.964Z,5.50
2018-01-03T08:40:46.982Z,5.50
2018-01-03T08:43:15.231Z,5.50
2018-01-03T08:45:43.458Z,5.50
2018-01-03T08:48:11.718Z,5.50
2018-01-03T08:50:39.968Z,5.50
2018-01-03T08:53:09.001Z,5.40
2018-01-03T08:55:37.261Z,5.40
2018-01-03T08:58:05.531Z,5.50
2018-01-03T09:00:33.783Z,5.40
2018-01-03T09:03:02.826Z,5.30
2018-01-03T09:05:31.070Z,5.30
2018-01-03T09:07:59.345Z,5.30
2018-01-03T09:10:28.360Z,5.40
2018-01-03T09:12:56.656Z,5.40
2018-01-03T09:15:24.915Z,5.40
2018-01-03T09:17:53.180Z,5.40
2018-01-03T09:20:21.452Z,5.40
2018-01-03T09:22:50.578Z,5.40
2018-01-03T09:25:18.882Z,5.50
2018-01-03T09:27:47.167Z,5.50
2018-01-03T09:30:15.423Z,5.60
2018-01-03T09:32:43.738Z,5.70
2018-01-03T09:35:11.974Z,5.70
2018-01-03T09:37:40.230Z,5.70
2018-01-03T09:40:08.556Z,5.80
2018-01-03T09:42:36.808Z,5.80
2018-01-03T09:45:05.082Z,5.90
2018-01-03T09:47:33.330Z,6.00
2018-01-03T09:50:01.611Z,6.00
2018-01-03T09:52:29.913Z,6.10
2018-01-03T09:54:58.204Z,6.20
2018-01-03T09:57:27.278Z,6.30
2018-01-03T09:59:55.519Z,6.30
2018-01-03T10:02:24.546Z,6.50
2018-01-03T10:04:52.814Z,6.50
2018-01-03T10:07:21.090Z,6.60
2018-01-03T10:09:49.340Z,6.60
2018-01-03T10:12:17.640Z,6.60
2018-01-03T10:14:45.902Z,6.70
2018-01-03T10:17:14.940Z,6.80
2018-01-03T10:19:43.194Z,6.80
2018-01-03T10:22:12.233Z,6.80
2018-01-03T10:24:41.066Z,6.80
2018-01-03T10:27:09.450Z,6.70
2018-01-03T10:29:37.743Z,6.70
2018-01-03T10:32:06.354Z,6.50
2018-01-03T10:34:34.594Z,6.30
2018-01-03T10:37:02.857Z,6.10
2018-01-03T10:39:31.130Z,6.00
2018-01-03T10:41:59.402Z,5.90
2018-01-03T10:44:27.617Z,6.00
2018-01-03T10:46:55.991Z,6.10
2018-01-03T10:49:24.362Z,6.10
2018-01-03T10:51:52.645Z,6.10
2018-01-03T10:54:20.897Z,6.30
2018-01-03T10:56:49.184Z,6.30
2018-01-03T10:59:18.209Z,6.60
2018-01-03T11:01:46.507Z,6.60
2018-01-03T11:04:14.791Z,6.60
2018-01-03T11:06:43.047Z,6.60
2018-01-03T11:09:11.338Z,6.70
2018-01-03T11:11:39.591Z,6.80
2018-01-03T11:14:07.865Z,6.80
2018-01-03T11:16:37.021Z,6.90
2018-01-03T11:19:05.279Z,6.90
2018-01-03T11:21:33.589Z,6.90
2018-01-03T11:24:02.680Z,6.90
2018-01-03T11:26:30.945Z,6.90
2018-01-03T11:28:59.960Z,6.90
2018-01-03T11:31:28.973Z,6.90
2018-01-03T11:33:57.245Z,6.90
2018-01-03T11:36:25.515Z,6.90
2018-01-03T11:38:53.779Z,6.90
2018-01-03T11:41:22.044Z,6.80
2018-01-03T11:43:50.314Z,6.70
2018-01-03T11:46:19.392Z,6.70
2018-01-03T11:48:47.696Z,6.70
2018-01-03T11:51:16.089Z,6.70
2018-01-03T11:53:44.458Z,6.70
2018-01-03T11:56:12.704Z,6.60
2018-01-03T11:58:41.005Z,6.50
2018-01-03T12:01:09.225Z,6.50
2018-01-03T12:03:37.528Z,6.40
2018-01-03T12:06:05.848Z,6.40
2018-01-03T12:08:34.154Z,6.30
2018-01-03T12:11:03.215Z,6.30
2018-01-03T12:13:31.562Z,6.30
2018-01-03T12:15:59.864Z,6.20
2018-01-03T12:18:28.130Z,6.10
2018-01-03T12:20:56.398Z,6.10
2018-01-03T12:23:24.732Z,6.10
2018-01-03T12:25:52.983Z,6.10
2018-01-03T12:28:21.250Z,6.10
2018-01-03T12:30:49.489Z,6.00
2018-01-03T12:33:17.783Z,6.00
2018-01-03T12:35:46.040Z,5.90
2018-01-03T12:38:14.320Z,5.90
2018-01-03T12:40:42.588Z,5.90
2018-01-03T12:43:11.603Z,5.90
2018-01-03T12:45:39.947Z,5.80
2018-01-03T12:48:08.972Z,5.90
2018-01-03T12:50:37.262Z,5.90
2018-01-03T12:53:05.526Z,5.90
2018-01-03T12:55:33.796Z,5.90
2018-01-03T12:58:02.050Z,5.90
2018-01-03T13:00:31.074Z,5.90
2018-01-03T13:02:59.361Z,5.90
2018-01-03T13:05:27.585Z,5.90
2018-01-03T13:07:55.860Z,5.90
2018-01-03T13:10:24.131Z,6.00
2018-01-03T13:12:52.402Z,6.00
2018-01-03T13:15:21.052Z,6.00
2018-01-03T13:17:49.335Z,6.00
2018-01-03T13:20:17.609Z,6.00
2018-01-03T13:22:45.856Z,5.90
2018-01-03T13:25:14.862Z,6.00
2018-01-03T13:27:43.949Z,6.00
2018-01-03T13:30:12.158Z,6.00
2018-01-03T13:32:40.409Z,6.10
2018-01-03T13:35:08.721Z,6.10
2018-01-03T13:37:36.985Z,6.10
2018-01-03T13:40:05.273Z,6.10
2018-01-03T13:42:33.558Z,6.10
2018-01-03T13:45:01.799Z,6.10
2018-01-03T13:47:30.097Z,6.10
2018-01-03T13:49:58.328Z,6.20
2018-01-03T13:52:27.355Z,6.30
2018-01-03T13:54:55.632Z,6.30
2018-01-03T13:57:23.862Z,6.30
2018-01-03T13:59:52.136Z,6.30
2018-01-03T14:02:21.543Z,6.40
2018-01-03T14:04:49.772Z,6.30
2018-01-03T14:07:18.027Z,6.40
2018-01-03T14:09:47.061Z,6.40
2018-01-03T14:12:15.321Z,6.40
2018-01-03T14:14:43.549Z,6.40
2018-01-03T14:17:12.602Z,6.50
2018-01-03T14:19:40.861Z,6.50
2018-01-03T14:22:09.115Z,6.50
2018-01-03T14:24:38.142Z,6.60
2018-01-03T14:27:06.394Z,6.60
2018-01-03T14:29:35.439Z,6.70
2018-01-03T14:32:03.705Z,6.60
2018-01-03T14:34:31.963Z,6.70
2018-01-03T14:37:00.228Z,6.70
2018-01-03T14:39:28.508Z,6.70
2018-01-03T14:41:56.783Z,6.70
2018-01-03T14:44:25.810Z,6.70
2018-01-03T14:46:54.060Z,6.70
2018-01-03T14:49:22.313Z,6.70
2018-01-03T14:51:50.615Z,6.60
2018-01-03T14:54:18.904Z,6.70
2018-01-03T14:56:47.188Z,6.70
2018-01-03T14:59:15.444Z,6.60
2018-01-03T15:01:43.718Z,6.60
2018-01-03T15:04:12.776Z,6.40
2018-01-03T15:06:41.046Z,6.30
2018-01-03T15:09:09.298Z,6.30
2018-01-03T15:11:38.031Z,6.30
2018-01-03T15:14:06.287Z,6.20
2018-01-03T15:16:34.577Z,6.10
2018-01-03T15:19:02.864Z,6.10
2018-01-03T15:21:31.111Z,6.10
2018-01-03T15:23:59.365Z,6.10
2018-01-03T15:26:27.715Z,6.10
2018-01-03T15:28:56.757Z,6.10
2018-01-03T15:31:25.014Z,6.00
2018-01-03T15:33:53.317Z,6.10
2018-01-03T15:36:21.599Z,6.10
2018-01-03T15:38:49.848Z,6.10
2018-01-03T15:41:18.123Z,6.10
2018-01-03T15:43:46.423Z,6.10
2018-01-03T15:46:14.668Z,6.10
2018-01-03T15:48:43.750Z,6.00
2018-01-03T15:51:12.004Z,6.00
2018-01-03T15:53:40.254Z,6.10
2018-01-03T15:56:08.541Z,6.10
2018-01-03T15:58:36.812Z,6.10
2018-01-03T16:01:05.095Z,6.10
2018-01-03T16:03:33.392Z,6.10
2018-01-03T16:06:01.867Z,6.20
2018-01-03T16:08:30.129Z,6.20
2018-01-03T16:10:58.735Z,6.30
2018-01-03T16:13:26.971Z,6.30
2018-01-03T16:15:55.246Z,6.30
2018-01-03T16:18:23.518Z,6.30
2018-01-03T16:20:51.824Z,6.30
2018-01-03T16:23:20.068Z,6.40
2018-01-03T16:25:48.333Z,6.40
2018-01-03T16:28:16.668Z,6.40
2018-01-03T16:30:44.913Z,6.40
2018-01-03T16:33:13.206Z,6.40
2018-01-03T16:35:41.487Z,6.40
2018-01-03T16:38:09.750Z,6.50
2018-01-03T16:40:38.041Z,6.50
2018-01-03T16:43:06.316Z,6.60
2018-01-03T16:45:34.570Z,6.60
2018-01-03T16:48:02.849Z,6.60
2018-01-03T16:50:31.138Z,6.70
2018-01-03T16:53:03.245Z,6.70
2018-01-03T16:55:31.521Z,6.70
2018-01-03T16:57:59.791Z,6.70
2018-01-03T17:00:28.047Z,6.80
2018-01-03T17:02:56.350Z,6.80
2018-01-03T17:05:24.668Z,6.70
2018-01-03T17:07:53.737Z,6.80
2018-01-03T17:10:21.965Z,6.80
2018-01-03T17:12:50.264Z,6.80
2018-01-03T17:15:18.524Z,6.80
2018-01-03T17:17:46.770Z,6.80
2018-01-03T17:20:15.043Z,6.60
2018-01-03T17:22:43.559Z,6.60
2018-01-03T17:25:11.885Z,6.50
2018-01-03T17:27:41.781Z,6.40
2018-01-03T17:30:10.060Z,6.40
2018-01-03T17:32:38.275Z,6.50
2018-01-03T17:35:07.341Z,6.50
2018-01-03T17:37:37.108Z,6.50
2018-01-03T17:40:05.376Z,6.50
2018-01-03T17:42:33.632Z,6.50
2018-01-03T17:45:02.667Z,6.60
2018-01-03T17:47:30.943Z,6.60
2018-01-03T17:49:59.360Z,6.60
2018-01-03T17:52:27.603Z,6.60
2018-01-03T17:54:56.007Z,6.50
2018-01-03T17:57:24.318Z,6.30
2018-01-03T17:59:52.588Z,6.30
2018-01-03T18:02:21.606Z,6.20
2018-01-03T18:04:49.886Z,6.20
2018-01-03T18:07:18.232Z,6.30
2018-01-03T18:09:46.460Z,6.30
2018-01-03T18:12:14.753Z,6.30
2018-01-03T18:14:43.096Z,6.30
2018-01-03T18:17:11.393Z,6.30
2018-01-03T18:19:39.689Z,6.50
2018-01-03T18:22:07.969Z,6.60
2018-01-03T18:24:36.257Z,6.60
2018-01-03T18:27:04.514Z,6.70
2018-01-03T18:29:32.815Z,6.70
2018-01-03T18:32:01.074Z,6.70
2018-01-03T18:34:29.369Z,6.80
2018-01-03T18:36:57.692Z,6.80
2018-01-03T18:39:26.715Z,6.90
2018-01-03T18:41:55.005Z,6.80
2018-01-03T18:44:23.303Z,6.80
2018-01-03T18:46:51.586Z,6.80
2018-01-03T18:49:20.915Z,6.70
2018-01-03T18:51:49.976Z,6.70
2018-01-03T18:54:18.298Z,6.70
2018-01-03T18:56:47.330Z,6.70
2018-01-03T18:59:15.936Z,6.70
2018-01-03T19:01:44.440Z,6.70
2018-01-03T19:04:12.776Z,6.70
2018-01-03T19:06:41.124Z,6.70
2018-01-03T19:09:09.434Z,6.70
2018-01-03T19:11:37.744Z,6.70
2018-01-03T19:14:06.764Z,6.70
2018-01-03T19:16:35.064Z,6.70
2018-01-03T19:19:03.462Z,6.70
2018-01-03T19:21:32.080Z,6.70
2018-01-03T19:24:00.527Z,6.90
2018-01-03T19:26:28.907Z,6.70
2018-01-03T19:28:57.236Z,6.70
2018-01-03T19:31:25.928Z,6.70
2018-01-03T19:33:54.360Z,6.60
2018-01-03T19:36:22.738Z,6.60
2018-01-03T19:38:51.037Z,6.60
2018-01-03T19:41:19.838Z,6.70
2018-01-03T19:43:49.237Z,6.60
2018-01-03T19:46:17.558Z,6.60
2018-01-03T19:48:45.912Z,6.60
2018-01-03T19:51:16.542Z,6.60
2018-01-03T19:53:44.894Z,6.60
2018-01-03T19:56:14.130Z,6.50
2018-01-03T19:58:42.581Z,6.50
2018-01-03T20:01:11.717Z,6.40
2018-01-03T20:03:40.169Z,6.40
2018-01-03T20:06:09.410Z,6.40
2018-01-03T20:08:39.385Z,6.40
2018-01-03T20:11:08.789Z,6.40
2018-01-03T20:13:37.484Z,6.50
2018-01-03T20:16:05.965Z,6.50
2018-01-03T20:18:34.285Z,6.40
2018-01-03T20:21:02.636Z,6.50
2018-01-03T20:23:32.754Z,6.50
2018-01-03T20:26:01.460Z,6.50
2018-01-03T20:28:30.584Z,6.50
2018-01-03T20:30:59.042Z,6.40
2018-01-03T20:33:28.377Z,6.50
2018-01-03T20:35:57.016Z,6.50
2018-01-03T20:38:25.602Z,6.60
2018-01-03T20:40:55.408Z,6.60
2018-01-03T20:43:25.013Z,6.60
2018-01-03T20:45:53.418Z,6.70
2018-01-03T20:48:33.521Z,6.80
2018-01-03T20:51:03.967Z,6.80
2018-01-03T20:53:33.477Z,6.80
2018-01-03T20:56:03.007Z,6.80
2018-01-03T20:58:33.107Z,6.80
2018-01-03T21:01:01.773Z,6.90
2018-01-03T21:03:31.113Z,6.80
2018-01-03T21:05:59.548Z,6.90
2018-01-03T21:08:28.778Z,6.90
2018-01-03T21:10:57.383Z,6.90
2018-01-03T21:13:27.080Z,6.90
2018-01-03T21:15:56.471Z,6.90
2018-01-03T21:18:26.596Z,6.90
2018-01-03T21:20:55.872Z,6.90
2018-01-03T21:23:24.794Z,6.90
2018-01-03T21:25:53.944Z,7.00
2018-01-03T21:28:22.675Z,6.90
2018-01-03T21:30:51.059Z,7.00
2018-01-03T21:33:20.377Z,6.90
2018-01-03T21:35:49.435Z,7.00
2018-01-03T21:38:17.794Z,7.00
2018-01-03T21:40:46.300Z,7.00
2018-01-03T21:43:14.706Z,7.00
2018-01-03T21:45:43.087Z,6.90
2018-01-03T21:48:12.232Z,7.00
2018-01-03T21:50:40.544Z,7.00
2018-01-03T21:53:10.673Z,7.00
2018-01-03T21:55:39.980Z,7.00
2018-01-03T21:58:08.674Z,7.00
2018-01-03T22:00:36.993Z,7.00
2018-01-03T22:03:06.273Z,7.00
2018-01-03T22:05:34.753Z,7.00
2018-01-03T22:08:03.090Z,7.00
2018-01-03T22:10:41.845Z,7.00
2018-01-03T22:13:10.937Z,7.10
2018-01-03T22:15:40.038Z,7.10
2018-01-03T22:18:09.076Z,7.10
2018-01-03T22:20:37.619Z,7.10
2018-01-03T22:23:06.683Z,7.10
2018-01-03T22:25:35.073Z,7.10
2018-01-03T22:28:03.300Z,7.10
2018-01-03T22:30:31.580Z,7.10
2018-01-03T22:32:59.860Z,7.00
2018-01-03T22:35:28.143Z,6.90
2018-01-03T22:37:56.391Z,6.90
2018-01-03T22:40:24.692Z,6.90
2018-01-03T22:42:53.022Z,6.90
2018-01-03T22:45:21.350Z,6.90
2018-01-03T22:47:49.618Z,6.90
2018-01-03T22:50:17.900Z,6.90
2018-01-03T22:52:47.989Z,6.80
2018-01-03T22:55:16.551Z,6.80
2018-01-03T22:57:44.913Z,6.80
2018-01-03T23:00:13.857Z,6.80
2018-01-03T23:02:42.300Z,6.70
2018-01-03T23:05:10.585Z,6.70
2018-01-03T23:07:39.670Z,6.60
2018-01-03T23:10:07.905Z,6.60
2018-01-03T23:12:36.204Z,6.60
2018-01-03T23:15:04.453Z,6.70
2018-01-03T23:17:33.491Z,6.70
2018-01-03T23:20:01.804Z,6.70
2018-01-03T23:22:30.140Z,6.70
2018-01-03T23:24:58.393Z,6.70
2018-01-03T23:27:26.691Z,6.70
2018-01-03T23:29:54.947Z,6.80
2018-01-03T23:32:23.298Z,6.80
2018-01-03T23:34:51.595Z,6.80
2018-01-03T23:37:19.958Z,6.80
2018-01-03T23:39:48.202Z,6.80
2018-01-03T23:42:16.527Z,6.90
2018-01-03T23:44:45.546Z,6.90
2018-01-03T23:47:13.860Z,6.90
2018-01-03T23:49:43.014Z,7.00
2018-01-03T23:52:11.271Z,7.00
2018-01-03T23:54:39.542Z,7.10
2018-01-03T23:57:08.584Z,7.10
2018-01-03T23:59:36.916Z,7.10
